Time;durP1;ratioP1;P1;durP2;ratioP2;P2;SDS_P1;SDS_P2;PMS_P1;PMS_P2;Temp;Humidity;BMP_temperature;BMP_pressure;BME280_temperature;BME280_humidity;BME280_pressure;Samples;Min_cycle;Max_cycle;Signal;HPM_P1;HPM_P2
2023/05/10 00:00:13;;;;;;;3.42;2.00;;;;;;;16.90;46.09;99765.66;4493625;31;34718;-64
2023/05/10 00:02:41;;;;;;;3.17;1.77;;;;;;;16.94;46.00;99761.62;4497147;31;34126;-64
2023/05/10 00:05:09;;;;;;;2.15;1.23;;;;;;;16.85;46.28;99765.25;4496715;31;33690;-66
2023/05/10 00:07:36;;;;;;;3.67;2.10;;;;;;;16.79;46.33;99760.44;4493826;31;34241;-65
2023/05/10 00:10:04;;;;;;;1.75;1.25;;;;;;;16.82;46.36;99762.84;4492183;31;33823;-63
2023/05/10 00:12:32;;;;;;;1.55;1.23;;;;;;;16.85;46.30;99763.38;4496384;31;33734;-65
2023/05/10 00:14:59;;;;;;;1.98;1.37;;;;;;;16.79;46.46;99769.44;4493278;31;32662;-65
2023/05/10 00:17:27;;;;;;;3.50;1.98;;;;;;;16.89;46.08;99753.16;4496789;31;33189;-66
2023/05/10 00:19:54;;;;;;;1.67;1.35;;;;;;;16.87;46.16;99758.69;4497838;31;37314;-66
2023/05/10 00:22:22;;;;;;;6.25;2.50;;;;;;;16.86;46.14;99748.03;4497603;31;34008;-62
2023/05/10 00:24:49;;;;;;;2.30;1.33;;;;;;;16.72;46.59;99755.63;4494533;31;34975;-63
2023/05/10 00:27:17;;;;;;;2.00;1.12;;;;;;;16.73;46.64;99756.50;4494744;31;33432;-64
2023/05/10 00:29:44;;;;;;;4.30;1.70;;;;;;;16.25;48.10;99749.56;4496164;31;33704;-63
2023/05/10 00:32:13;;;;;;;3.10;1.55;;;;;;;16.40;47.64;99753.44;4497041;31;33896;-63
2023/05/10 00:34:41;;;;;;;1.87;1.20;;;;;;;16.26;48.10;99753.97;4494737;31;33764;-63
2023/05/10 00:37:08;;;;;;;3.28;1.52;;;;;;;16.20;48.13;99750.00;4495455;31;33283;-66
2023/05/10 00:39:36;;;;;;;1.35;0.98;;;;;;;16.07;48.75;99753.06;4491060;31;34395;-63
2023/05/10 00:42:04;;;;;;;1.60;1.35;;;;;;;16.17;48.41;99754.84;4495825;31;33780;-66
2023/05/10 00:44:32;;;;;;;2.20;1.20;;;;;;;16.32;47.92;99753.34;4493107;31;33783;-63
2023/05/10 00:46:59;;;;;;;1.25;1.05;;;;;;;16.33;47.86;99746.09;4486972;31;34595;-64
2023/05/10 00:49:27;;;;;;;2.65;2.03;;;;;;;16.44;47.51;99757.56;4486765;31;33695;-64
2023/05/10 00:51:54;;;;;;;3.90;1.73;;;;;;;16.43;47.51;99749.59;4492281;31;34073;-64
2023/05/10 00:54:22;;;;;;;3.50;2.28;;;;;;;16.35;47.70;99741.41;4487887;31;33834;-65
2023/05/10 00:56:51;;;;;;;4.70;1.95;;;;;;;16.18;48.27;99745.75;4495294;31;33145;-67
2023/05/10 00:59:19;;;;;;;2.05;1.33;;;;;;;16.35;48.10;99741.41;4496195;31;33804;-63
2023/05/10 01:01:47;;;;;;;1.90;1.35;;;;;;;16.31;47.87;99740.88;4490504;31;36130;-64
2023/05/10 01:04:15;;;;;;;2.72;1.55;;;;;;;16.35;47.86;99749.50;4489940;31;34495;-65
2023/05/10 01:06:42;;;;;;;4.22;1.23;;;;;;;16.17;48.26;99741.34;4492918;31;34092;-64
2023/05/10 01:09:11;;;;;;;2.05;1.45;;;;;;;16.14;48.42;99742.50;4491046;31;32426;-65
2023/05/10 01:11:39;;;;;;;3.50;1.95;;;;;;;16.30;47.84;99742.69;4490667;31;32809;-63
2023/05/10 01:14:07;;;;;;;3.53;2.08;;;;;;;16.27;48.04;99740.28;4495036;31;34143;-64
2023/05/10 01:16:39;;;;;;;2.40;1.58;;;;;;;16.28;48.13;99741.16;4492305;31;34660;-63
2023/05/10 01:19:30;;;;;;;4.55;2.08;;;;;;;16.43;47.60;99745.03;4486764;31;33608;-65
2023/05/10 01:22:06;;;;;;;3.67;1.95;;;;;;;16.53;47.42;99750.37;4493488;31;35127;-65
2023/05/10 01:24:39;;;;;;;;;;;;;;;16.50;47.55;99745.25;4481911;31;34978;-66
2023/05/10 01:27:13;;;;;;;3.10;1.95;;;;;;;16.49;47.59;99749.81;4494626;31;33038;-63
2023/05/10 01:29:49;;;;;;;3.03;1.58;;;;;;;16.41;47.83;99740.81;4495234;31;33992;-62
2023/05/10 01:32:39;;;;;;;5.45;1.80;;;;;;;16.44;47.83;99735.94;4495288;31;32940;-63
2023/05/10 01:35:10;;;;;;;2.25;1.58;;;;;;;16.45;47.95;99732.22;4491686;31;33896;-64
2023/05/10 01:37:56;;;;;;;3.33;1.98;;;;;;;16.42;48.04;99747.91;4486640;31;33386;-65
2023/05/10 01:40:30;;;;;;;;;;;;;;;16.46;48.10;99736.63;4498680;31;34949;-63
2023/05/10 01:43:08;;;;;;;3.60;1.70;;;;;;;16.51;48.05;99739.72;4493936;31;33140;-64
2023/05/10 01:46:04;;;;;;;2.80;1.83;;;;;;;16.50;47.93;99739.88;4489032;31;33665;-63
2023/05/10 01:48:32;;;;;;;3.65;2.30;;;;;;;16.59;47.74;99740.81;4483773;31;32292;-62
2023/05/10 01:51:00;;;;;;;5.18;2.08;;;;;;;16.40;48.21;99739.94;4482702;31;33599;-64
2023/05/10 01:53:28;;;;;;;4.47;2.28;;;;;;;16.47;47.97;99730.25;4496731;31;33985;-67
2023/05/10 01:55:56;;;;;;;3.53;1.85;;;;;;;16.48;47.99;99737.34;4484230;31;33572;-65
2023/05/10 01:58:28;;;;;;;2.42;1.87;;;;;;;16.48;48.01;99731.94;4485526;31;34539;-64
2023/05/10 02:00:58;;;;;;;3.20;2.05;;;;;;;16.41;48.26;99730.00;4483864;31;33737;-64
2023/05/10 02:03:27;;;;;;;5.05;3.00;;;;;;;16.37;48.35;99724.06;4494050;31;34012;-65
2023/05/10 02:05:55;;;;;;;1.90;1.55;;;;;;;15.81;49.85;99722.38;4489954;31;34043;-65
2023/05/10 02:08:23;;;;;;;3.10;2.25;;;;;;;16.36;48.45;99724.19;4492220;31;33546;-65
2023/05/10 02:10:54;;;;;;;6.18;2.37;;;;;;;16.28;48.60;99717.72;4490911;31;35077;-64
2023/05/10 02:13:23;;;;;;;3.35;2.37;;;;;;;16.40;48.14;99709.38;4480160;31;33849;-64
2023/05/10 02:15:51;;;;;;;4.15;1.85;;;;;;;16.44;48.12;99711.63;4480860;31;33603;-64
2023/05/10 02:18:19;;;;;;;4.50;2.55;;;;;;;16.45;48.23;99710.63;4491765;31;34289;-65
2023/05/10 02:20:47;;;;;;;2.05;1.45;;;;;;;16.40;48.35;99715.62;4489034;31;34620;-64
2023/05/10 02:23:16;;;;;;;4.75;2.30;;;;;;;16.31;48.54;99708.47;4483148;31;34275;-67
2023/05/10 02:25:44;;;;;;;4.85;2.30;;;;;;;16.23;48.80;99701.09;4496360;31;33615;-65
2023/05/10 02:28:14;;;;;;;3.12;2.00;;;;;;;16.08;49.33;99702.59;4482621;31;32647;-66
2023/05/10 02:30:42;;;;;;;2.83;2.05;;;;;;;16.30;48.95;99702.19;4496769;31;35097;-66
2023/05/10 02:33:11;;;;;;;3.37;2.03;;;;;;;16.47;48.41;99700.53;4495867;31;35052;-65
2023/05/10 02:35:38;;;;;;;4.37;1.75;;;;;;;16.45;48.54;99709.78;4491930;31;33876;-65
2023/05/10 02:38:08;;;;;;;3.87;1.95;;;;;;;16.42;48.69;99700.12;4493911;31;32640;-64
2023/05/10 02:40:36;;;;;;;2.28;1.40;;;;;;;15.89;50.18;99706.28;4479800;31;33865;-66
2023/05/10 02:43:04;;;;;;;3.92;1.65;;;;;;;16.31;49.18;99703.06;4488595;31;34003;-65
2023/05/10 02:45:32;;;;;;;2.60;1.55;;;;;;;16.32;49.38;99707.44;4497177;31;33799;-65
2023/05/10 02:48:00;;;;;;;4.60;2.05;;;;;;;16.49;48.86;99708.47;4497526;31;33028;-67
2023/05/10 02:50:28;;;;;;;3.03;2.25;;;;;;;16.51;48.65;99707.31;4495222;31;32735;-64
2023/05/10 02:52:59;;;;;;;8.23;2.25;;;;;;;16.34;49.11;99707.28;4491239;31;34971;-63
2023/05/10 02:55:36;;;;;;;3.37;1.90;;;;;;;16.11;49.77;99702.31;4494286;31;34369;-63
2023/05/10 02:58:04;;;;;;;3.10;2.05;;;;;;;16.16;49.66;99704.56;4495005;31;32898;-63
2023/05/10 03:00:32;;;;;;;3.37;2.03;;;;;;;16.42;48.90;99699.28;4495279;31;33318;-63
2023/05/10 03:03:00;;;;;;;3.65;1.55;;;;;;;16.33;49.13;99713.69;4480660;31;33613;-62
2023/05/10 03:05:28;;;;;;;2.28;1.65;;;;;;;16.45;48.77;99699.81;4491390;31;33789;-64
2023/05/10 03:07:56;;;;;;;12.20;2.12;;;;;;;16.44;48.68;99706.22;4491177;31;32886;-63
2023/05/10 03:10:29;;;;;;;7.60;3.17;;;;;;;16.28;49.05;99693.41;4493455;31;33820;-63
2023/05/10 03:13:00;;;;;;;4.75;2.22;;;;;;;16.02;49.70;99706.78;4495845;31;33889;-62
2023/05/10 03:15:46;;;;;;;2.22;1.40;;;;;;;15.99;49.63;99700.84;4496986;31;33082;-63
2023/05/10 03:18:42;;;;;;;5.62;2.30;;;;;;;15.69;50.39;99702.81;4497641;31;34468;-62
2023/05/10 03:21:12;;;;;;;3.10;2.03;;;;;;;15.59;50.55;99702.81;4490478;31;33716;-62
2023/05/10 03:23:46;;;;;;;3.80;2.33;;;;;;;15.73;49.93;99703.34;4498947;31;33945;-62
2023/05/10 03:26:20;;;;;;;2.55;1.65;;;;;;;15.57;50.35;99704.81;4489726;31;33361;-63
2023/05/10 03:28:48;;;;;;;4.90;1.67;;;;;;;15.24;51.05;99703.50;4496411;31;33038;-63
2023/05/10 03:31:17;;;;;;;4.40;1.67;;;;;;;15.48;50.34;99697.63;4486705;31;34896;-63
2023/05/10 03:33:52;;;;;;;2.85;1.48;;;;;;;15.67;49.84;99698.56;4490261;31;34043;-64
2023/05/10 03:36:20;;;;;;;3.67;1.80;;;;;;;15.39;50.02;99706.59;4488777;31;34798;-64
2023/05/10 03:38:48;;;;;;;4.70;2.15;;;;;;;15.40;50.34;99699.34;4494656;31;32049;-63
2023/05/10 03:41:15;;;;;;;5.25;2.12;;;;;;;15.26;50.43;99711.44;4494370;31;34557;-63
2023/05/10 03:43:43;;;;;;;8.52;2.10;;;;;;;15.75;49.19;99702.22;4484098;31;35085;-64
2023/05/10 03:46:10;;;;;;;3.25;1.92;;;;;;;15.88;48.70;99701.88;4496087;31;34005;-63
2023/05/10 03:48:38;;;;;;;5.50;2.67;;;;;;;15.84;48.79;99701.31;4493485;31;33531;-64
2023/05/10 03:51:06;;;;;;;5.65;2.00;;;;;;;15.79;48.88;99700.94;4487391;31;33750;-64
2023/05/10 03:53:33;;;;;;;2.87;2.12;;;;;;;15.78;48.83;99696.50;4487660;31;34094;-63
2023/05/10 03:56:01;;;;;;;2.17;1.35;;;;;;;15.88;48.69;99703.72;4495784;31;32141;-65
2023/05/10 03:58:29;;;;;;;3.28;2.20;;;;;;;15.71;48.94;99700.81;4493447;31;33458;-65
2023/05/10 04:00:56;;;;;;;1.85;1.33;;;;;;;15.59;49.29;99700.12;4495052;31;34951;-64
2023/05/10 04:03:25;;;;;;;2.47;1.50;;;;;;;15.59;49.69;99700.12;4486456;31;35206;-63
2023/05/10 04:06:02;;;;;;;3.00;1.80;;;;;;;15.74;49.34;99705.06;4493074;31;34877;-63
2023/05/10 04:08:31;;;;;;;2.45;1.65;;;;;;;15.74;49.12;99694.28;4485467;31;33172;-65
2023/05/10 04:11:08;;;;;;;2.58;1.87;;;;;;;15.65;49.24;99695.97;4484433;31;33696;-64
2023/05/10 04:13:37;;;;;;;9.98;2.67;;;;;;;15.81;48.58;99693.53;4491791;31;33801;-65
2023/05/10 04:16:05;;;;;;;2.65;1.75;;;;;;;15.68;49.07;99702.97;4484502;31;33562;-64
2023/05/10 04:18:32;;;;;;;4.97;2.22;;;;;;;15.68;49.13;99698.41;4487211;31;33239;-65
2023/05/10 04:21:00;;;;;;;3.90;2.17;;;;;;;15.75;49.86;99695.97;4481882;31;33556;-65
2023/05/10 04:23:27;;;;;;;3.65;2.47;;;;;;;15.94;48.63;99703.13;4489357;31;34061;-66
2023/05/10 04:26:00;;;;;;;5.78;2.75;;;;;;;15.76;49.37;99708.44;4492649;31;34796;-67
2023/05/10 04:28:28;;;;;;;5.50;3.25;;;;;;;16.10;48.73;99702.47;4490441;31;33235;-65
2023/05/10 04:31:09;;;;;;;2.12;1.50;;;;;;;15.87;48.67;99704.72;4497565;31;33727;-65
2023/05/10 04:33:37;;;;;;;3.47;1.77;;;;;;;15.95;48.70;99710.22;4492178;31;34045;-65
2023/05/10 04:36:05;;;;;;;3.62;2.30;;;;;;;15.79;49.23;99717.13;4495860;31;33804;-65
2023/05/10 04:38:32;;;;;;;4.45;2.40;;;;;;;15.67;49.64;99709.38;4486661;31;34630;-64
2023/05/10 04:41:08;;;;;;;4.65;2.00;;;;;;;15.77;49.09;99711.03;4485480;31;34603;-65
2023/05/10 04:43:35;;;;;;;;;;;;;;;15.85;48.77;99715.66;4486232;31;35427;-65
2023/05/10 04:46:04;;;;;;;2.92;1.95;;;;;;;16.02;48.99;99714.03;4482079;32;34673;-65
2023/05/10 04:48:31;;;;;;;3.72;2.42;;;;;;;16.44;47.82;99708.94;4490041;31;33090;-66
2023/05/10 04:50:59;;;;;;;1.55;1.25;;;;;;;16.17;48.33;99711.66;4488589;31;33649;-66
2023/05/10 04:53:27;;;;;;;3.53;1.85;;;;;;;16.23;47.97;99716.47;4485652;31;32738;-65
2023/05/10 04:55:54;;;;;;;3.40;1.95;;;;;;;15.96;48.56;99709.22;4490102;31;34952;-64
2023/05/10 04:58:21;;;;;;;7.30;2.25;;;;;;;16.32;48.17;99715.56;4496547;31;33341;-64
2023/05/10 05:00:49;;;;;;;2.97;2.08;;;;;;;15.82;48.97;99714.09;4492250;31;33804;-64
2023/05/10 05:03:17;;;;;;;3.95;2.35;;;;;;;15.63;49.55;99716.84;4487165;31;33908;-65
2023/05/10 05:05:44;;;;;;;2.45;1.55;;;;;;;16.08;49.26;99708.00;4489188;31;34075;-64
2023/05/10 05:08:13;;;;;;;4.22;2.50;;;;;;;15.91;49.13;99708.81;4492194;31;33411;-64
2023/05/10 05:10:40;;;;;;;4.62;2.20;;;;;;;16.37;48.25;99713.25;4500019;31;33754;-65
2023/05/10 05:13:07;;;;;;;6.40;2.25;;;;;;;16.48;47.81;99717.56;4500180;31;33923;-65
2023/05/10 05:15:35;;;;;;;3.65;2.03;;;;;;;16.73;47.33;99715.97;4495983;31;34977;-65
2023/05/10 05:18:03;;;;;;;9.32;2.92;;;;;;;16.90;47.44;99717.84;4485580;31;33183;-63
2023/05/10 05:20:33;;;;;;;5.75;2.47;;;;;;;16.50;47.55;99719.13;4487965;31;33720;-63
2023/05/10 05:23:01;;;;;;;5.03;2.35;;;;;;;16.63;47.23;99710.63;4497130;31;34196;-65
2023/05/10 05:25:28;;;;;;;4.07;2.55;;;;;;;16.93;47.15;99708.56;4495480;31;34080;-65
2023/05/10 05:27:56;;;;;;;6.75;2.33;;;;;;;16.96;46.62;99728.03;4494849;31;33503;-64
2023/05/10 05:30:24;;;;;;;3.50;1.87;;;;;;;16.83;46.78;99716.75;4489336;31;35022;-64
2023/05/10 05:32:52;;;;;;;4.60;2.62;;;;;;;16.21;48.49;99718.44;4494305;31;35159;-66
2023/05/10 05:35:19;;;;;;;6.50;2.60;;;;;;;16.57;47.99;99719.34;4499898;31;34822;-66
2023/05/10 05:37:47;;;;;;;2.35;1.90;;;;;;;16.30;48.34;99721.09;4499778;31;34352;-65
2023/05/10 05:40:14;;;;;;;3.00;2.33;;;;;;;15.89;49.77;99727.00;4484740;31;32753;-66
2023/05/10 05:42:42;;;;;;;6.25;2.40;;;;;;;16.33;48.70;99730.75;4497170;31;33830;-65
2023/05/10 05:45:12;;;;;;;3.22;2.10;;;;;;;15.88;49.18;99730.72;4486745;31;33784;-65
2023/05/10 05:47:40;;;;;;;4.70;2.05;;;;;;;15.28;50.90;99723.78;4496165;31;33300;-65
2023/05/10 05:50:08;;;;;;;5.18;2.50;;;;;;;15.48;50.62;99734.53;4498493;31;34238;-64
2023/05/10 05:52:36;;;;;;;5.75;2.53;;;;;;;15.21;50.96;99729.88;4496085;31;33940;-66
2023/05/10 05:55:04;;;;;;;2.70;1.85;;;;;;;15.37;50.90;99735.53;4498278;31;34818;-65
2023/05/10 05:57:31;;;;;;;2.47;1.65;;;;;;;14.39;53.27;99737.38;4499508;31;34274;-65
2023/05/10 05:59:59;;;;;;;2.67;1.98;;;;;;;15.39;51.30;99738.94;4495512;31;33749;-67
2023/05/10 06:02:26;;;;;;;4.10;2.42;;;;;;;16.17;49.08;99738.66;4493843;31;32819;-66
2023/05/10 06:04:54;;;;;;;1.58;0.77;;;;;;;15.24;50.68;99743.09;4498875;31;33976;-66
2023/05/10 06:07:22;;;;;;;5.37;2.53;;;;;;;15.79;50.04;99730.62;4486804;31;33285;-65
2023/05/10 06:09:49;;;;;;;4.05;2.50;;;;;;;16.60;48.36;99734.41;4484982;31;33942;-65
2023/05/10 06:12:17;;;;;;;3.70;2.37;;;;;;;16.38;48.57;99741.09;4490058;31;32642;-65
2023/05/10 06:14:44;;;;;;;2.72;2.08;;;;;;;17.23;47.28;99742.41;4490537;31;34050;-68
2023/05/10 06:17:12;;;;;;;4.22;1.85;;;;;;;17.33;46.57;99743.16;4492574;31;34244;-65
2023/05/10 06:19:40;;;;;;;3.22;1.80;;;;;;;17.24;46.30;99738.72;4492314;31;33896;-65
2023/05/10 06:22:07;;;;;;;6.47;3.28;;;;;;;17.03;46.85;99747.16;4490873;31;35685;-65
2023/05/10 06:24:35;;;;;;;3.67;2.25;;;;;;;16.84;47.17;99745.47;4489640;31;32317;-65
2023/05/10 06:27:03;;;;;;;2.87;1.75;;;;;;;17.24;46.61;99749.56;4494612;31;31924;-67
2023/05/10 06:29:31;;;;;;;8.15;3.05;;;;;;;17.10;46.01;99753.66;4488475;31;34928;-64
2023/05/10 06:31:58;;;;;;;3.17;2.25;;;;;;;17.21;46.25;99749.87;4485178;31;33538;-66
2023/05/10 06:34:26;;;;;;;7.78;2.40;;;;;;;17.42;45.31;99752.19;4496606;31;33790;-66
2023/05/10 06:36:53;;;;;;;5.95;3.33;;;;;;;17.16;46.13;99753.03;4496776;31;34610;-64
2023/05/10 06:39:21;;;;;;;4.30;2.53;;;;;;;17.13;45.66;99760.59;4496807;31;33888;-64
2023/05/10 06:41:49;;;;;;;4.82;2.85;;;;;;;16.69;46.38;99763.19;4485588;31;33885;-67
2023/05/10 06:44:16;;;;;;;4.03;2.45;;;;;;;16.72;46.07;99758.34;4486610;31;34944;-65
2023/05/10 06:46:43;;;;;;;4.57;2.72;;;;;;;16.91;46.19;99753.81;4487893;31;34169;-65
2023/05/10 06:49:11;;;;;;;3.85;2.58;;;;;;;16.50;47.27;99751.53;4486108;31;34959;-66
2023/05/10 06:51:39;;;;;;;5.20;2.75;;;;;;;17.15;45.63;99759.44;4491989;31;33661;-65
2023/05/10 06:54:07;;;;;;;3.00;2.17;;;;;;;17.29;46.38;99763.44;4494719;31;33363;-67
2023/05/10 06:56:35;;;;;;;6.87;2.58;;;;;;;17.24;45.75;99749.56;4492616;31;33417;-64
2023/05/10 06:59:02;;;;;;;4.87;2.60;;;;;;;17.18;45.77;99756.44;4494358;31;32573;-65
2023/05/10 07:01:30;;;;;;;6.45;3.10;;;;;;;17.21;46.05;99745.31;4489260;31;35199;-67
2023/05/10 07:03:57;;;;;;;4.75;2.60;;;;;;;17.44;44.88;99748.34;4487945;31;34144;-65
2023/05/10 07:06:25;;;;;;;6.97;3.53;;;;;;;17.16;45.54;99757.59;4493362;31;33556;-65
2023/05/10 07:09:00;;;;;;;3.28;2.08;;;;;;;16.83;45.96;99751.91;4488288;31;32506;-66
2023/05/10 07:11:28;;;;;;;6.50;2.97;;;;;;;16.80;46.41;99759.47;4484055;31;32810;-66
2023/05/10 07:13:55;;;;;;;5.00;3.22;;;;;;;17.43;45.28;99749.34;4497289;31;35077;-65
2023/05/10 07:16:23;;;;;;;2.90;1.92;;;;;;;17.45;44.57;99750.03;4487944;31;33188;-65
2023/05/10 07:18:51;;;;;;;4.85;2.00;;;;;;;17.08;46.21;99743.97;4492935;31;33781;-65
2023/05/10 07:21:18;;;;;;;3.78;2.58;;;;;;;16.66;46.95;99750.88;4488767;31;34820;-66
2023/05/10 07:23:46;;;;;;;4.78;2.05;;;;;;;16.77;46.76;99758.75;4487646;31;33657;-66
2023/05/10 07:26:14;;;;;;;5.37;2.78;;;;;;;16.96;45.57;99752.34;4497152;31;34194;-69
2023/05/10 07:28:42;;;;;;;9.40;3.03;;;;;;;17.36;45.56;99745.56;4497694;31;32679;-66
2023/05/10 07:31:09;;;;;;;3.97;1.92;;;;;;;17.68;45.15;99746.78;4495217;31;35308;-66
2023/05/10 07:33:37;;;;;;;3.65;1.85;;;;;;;17.67;44.62;99739.69;4493520;31;34624;-66
2023/05/10 07:36:04;;;;;;;3.53;1.90;;;;;;;17.43;44.61;99740.34;4498008;31;33461;-65
2023/05/10 07:38:32;;;;;;;3.37;2.15;;;;;;;17.33;44.80;99742.31;4494552;31;33479;-65
2023/05/10 07:41:00;;;;;;;4.18;2.47;;;;;;;17.71;44.04;99735.63;4497099;31;33910;-66
2023/05/10 07:43:27;;;;;;;4.37;2.65;;;;;;;17.05;45.42;99745.16;4486726;31;33649;-66
2023/05/10 07:45:57;;;;;;;4.28;1.87;;;;;;;17.32;44.99;99740.63;4485123;32;34384;-66
2023/05/10 07:48:24;;;;;;;5.15;2.58;;;;;;;17.18;45.54;99734.78;4493376;31;33829;-67
2023/05/10 07:50:52;;;;;;;3.22;1.92;;;;;;;17.47;45.05;99733.66;4496722;31;32633;-66
2023/05/10 07:53:20;;;;;;;5.75;3.10;;;;;;;17.75;44.16;99753.25;4487515;31;34164;-65
2023/05/10 07:55:51;;;;;;;5.40;1.98;;;;;;;17.51;45.20;99735.00;4486845;31;33492;-66
2023/05/10 07:58:19;;;;;;;3.78;2.28;;;;;;;17.66;43.49;99738.00;4485329;31;33565;-66
2023/05/10 08:00:46;;;;;;;2.87;1.70;;;;;;;17.69;45.34;99741.22;4492981;31;32814;-66
2023/05/10 08:03:14;;;;;;;3.10;2.10;;;;;;;17.62;44.10;99736.59;4498139;31;33934;-67
2023/05/10 08:05:42;;;;;;;3.60;1.95;;;;;;;17.87;43.13;99749.28;4490203;31;34226;-67
2023/05/10 08:08:10;;;;;;;4.53;2.00;;;;;;;17.51;43.89;99745.84;4497348;31;33671;-65
2023/05/10 08:10:37;;;;;;;5.05;1.85;;;;;;;17.22;44.75;99747.00;4483473;31;34209;-66
2023/05/10 08:13:05;;;;;;;4.07;1.55;;;;;;;17.39;44.61;99739.84;4483810;31;32500;-65
2023/05/10 08:15:33;;;;;;;4.65;2.42;;;;;;;17.40;45.38;99746.12;4488998;31;33596;-65
2023/05/10 08:18:01;;;;;;;3.30;1.35;;;;;;;17.69;44.11;99749.34;4483218;31;35038;-66
2023/05/10 08:20:28;;;;;;;2.95;1.67;;;;;;;17.65;44.16;99747.09;4488374;31;35266;-66
2023/05/10 08:22:56;;;;;;;2.75;1.77;;;;;;;17.72;43.86;99747.31;4493454;31;35899;-66
2023/05/10 08:25:23;;;;;;;2.75;1.67;;;;;;;17.51;44.43;99740.44;4484189;31;33399;-65
2023/05/10 08:27:51;;;;;;;4.53;2.05;;;;;;;17.82;43.37;99734.56;4486800;31;34901;-65
2023/05/10 08:30:18;;;;;;;15.77;3.22;;;;;;;18.04;44.07;99733.09;4494967;31;34190;-65
2023/05/10 08:32:46;;;;;;;3.53;1.50;;;;;;;17.78;43.85;99734.00;4487638;31;34506;-65
2023/05/10 08:35:15;;;;;;;5.93;2.05;;;;;;;18.14;42.82;99728.44;4496573;31;33639;-66
2023/05/10 08:37:43;;;;;;;5.78;2.80;;;;;;;18.10;43.55;99733.31;4486659;31;33755;-65
2023/05/10 08:40:11;;;;;;;5.35;2.28;;;;;;;18.35;42.52;99727.97;4492136;31;33784;-66
2023/05/10 08:42:40;;;;;;;5.35;2.28;;;;;;;18.12;42.02;99730.44;4489763;31;34084;-67
2023/05/10 08:45:08;;;;;;;4.93;2.70;;;;;;;18.27;42.98;99731.53;4483399;31;33447;-66
2023/05/10 08:47:37;;;;;;;4.25;2.78;;;;;;;18.62;41.90;99725.00;4482869;31;33498;-65
2023/05/10 08:50:06;;;;;;;3.17;1.80;;;;;;;18.83;40.80;99729.97;4494230;31;33676;-66
2023/05/10 08:52:36;;;;;;;3.72;1.90;;;;;;;18.45;41.60;99723.25;4496253;31;32301;-66
2023/05/10 08:55:04;;;;;;;3.65;1.77;;;;;;;18.39;41.73;99718.50;4482709;31;33207;-66
2023/05/10 08:57:31;;;;;;;4.05;1.95;;;;;;;18.62;42.62;99735.00;4491920;31;33765;-67
2023/05/10 09:00:00;;;;;;;6.05;1.83;;;;;;;18.74;40.54;99736.38;4487311;31;33785;-67
2023/05/10 09:02:28;;;;;;;3.90;2.35;;;;;;;18.33;40.71;99721.88;4496949;31;32611;-66
2023/05/10 09:04:56;;;;;;;3.90;2.22;;;;;;;18.90;39.41;99723.88;4500019;31;32294;-64
2023/05/10 09:07:24;;;;;;;3.95;2.35;;;;;;;18.79;41.20;99725.06;4498248;31;33888;-61
2023/05/10 09:09:53;;;;;;;2.87;1.80;;;;;;;18.98;40.21;99729.31;4496858;31;34939;-63
2023/05/10 09:12:20;;;;;;;2.53;1.42;;;;;;;19.59;38.73;99733.31;4499644;31;34906;-62
2023/05/10 09:14:48;;;;;;;3.70;2.47;;;;;;;19.25;38.62;99726.22;4497754;31;34644;-69
2023/05/10 09:17:16;;;;;;;3.53;2.12;;;;;;;19.51;39.51;99733.31;4498777;31;32644;-64
2023/05/10 09:19:45;;;;;;;1.87;1.52;;;;;;;19.57;38.55;99726.34;4496472;31;34114;-66
2023/05/10 09:22:12;;;;;;;3.42;1.83;;;;;;;19.50;38.20;99723.50;4491639;31;33674;-66
2023/05/10 09:24:44;;;;;;;5.62;2.75;;;;;;;19.83;36.82;99712.56;4483854;31;33287;-66
2023/05/10 09:27:12;;;;;;;5.12;2.35;;;;;;;19.47;38.73;99721.97;4490644;31;33031;-65
2023/05/10 09:29:41;;;;;;;3.65;1.87;;;;;;;19.74;38.48;99722.59;4496475;31;34529;-65
2023/05/10 09:32:09;;;;;;;2.78;1.87;;;;;;;19.72;38.34;99720.06;4497555;31;34049;-65
2023/05/10 09:34:39;;;;;;;4.60;2.12;;;;;;;19.57;38.80;99720.94;4498850;31;33554;-66
2023/05/10 09:37:08;;;;;;;3.65;2.28;;;;;;;19.85;39.05;99713.25;4499500;31;32752;-66
2023/05/10 09:39:36;;;;;;;2.55;1.85;;;;;;;20.04;39.04;99703.84;4492951;31;33699;-65
2023/05/10 09:42:06;;;;;;;3.00;2.05;;;;;;;20.37;36.64;99708.06;4495173;31;34028;-66
2023/05/10 09:44:33;;;;;;;4.50;2.30;;;;;;;20.10;37.65;99700.41;4498759;31;33351;-66
2023/05/10 09:47:02;;;;;;;3.20;2.08;;;;;;;19.13;38.96;99707.75;4495942;31;32346;-65
2023/05/10 09:49:29;;;;;;;2.55;1.62;;;;;;;19.50;38.37;99710.75;4499570;31;34877;-66
2023/05/10 09:52:05;;;;;;;3.75;1.75;;;;;;;19.64;38.17;99720.09;4501311;31;34051;-67
2023/05/10 09:54:33;;;;;;;3.35;2.30;;;;;;;19.60;38.33;99716.00;4497740;31;33239;-66
2023/05/10 09:57:01;;;;;;;4.35;2.37;;;;;;;19.67;38.12;99708.88;4500381;31;33647;-65
2023/05/10 09:59:29;;;;;;;3.47;2.22;;;;;;;20.22;37.63;99712.56;4486574;31;34139;-66
2023/05/10 10:01:59;;;;;;;4.47;2.12;;;;;;;20.05;37.66;99706.38;4496058;31;33660;-65
2023/05/10 10:04:28;;;;;;;2.87;1.80;;;;;;;20.13;37.75;99691.91;4497888;31;33526;-65
2023/05/10 10:07:03;;;;;;;4.50;2.00;;;;;;;20.60;36.72;99702.69;4494601;31;33582;-64
2023/05/10 10:09:32;;;;;;;4.78;2.22;;;;;;;20.51;36.97;99700.16;4498992;31;33722;-66
2023/05/10 10:12:00;;;;;;;4.93;2.20;;;;;;;20.45;36.34;99693.59;4490845;31;34509;-64
2023/05/10 10:14:28;;;;;;;10.52;2.22;;;;;;;20.03;37.12;99689.37;4498333;31;33569;-64
2023/05/10 10:16:56;;;;;;;2.90;1.83;;;;;;;20.18;36.88;99689.50;4493204;31;33945;-63
2023/05/10 10:19:35;;;;;;;2.65;2.00;;;;;;;20.03;37.26;99686.66;4496101;31;34009;-64
2023/05/10 10:22:03;;;;;;;3.28;1.80;;;;;;;20.19;37.17;99694.75;4497705;31;33847;-63
2023/05/10 10:24:31;;;;;;;5.28;2.55;;;;;;;20.17;37.25;99690.53;4497455;31;34652;-64
2023/05/10 10:27:44;;;;;;;4.85;2.08;;;;;;;20.27;36.79;99682.16;4499955;31;34446;-65
2023/05/10 10:30:30;;;;;;;2.97;1.80;;;;;;;19.76;37.41;99691.53;4495818;31;34112;-65
2023/05/10 10:33:28;;;;;;;4.12;2.45;;;;;;;19.66;38.06;99684.62;4485744;31;33999;-65
2023/05/10 10:35:59;;;;;;;7.55;2.12;;;;;;;20.08;37.73;99683.44;4493492;31;32443;-66
2023/05/10 10:38:59;;;;;;;7.47;1.90;;;;;;;19.65;37.11;99683.78;4487508;31;32983;-64
2023/05/10 10:41:35;;;;;;;2.75;1.70;;;;;;;19.57;37.05;99677.50;4489470;31;33934;-63
2023/05/10 10:44:22;;;;;;;3.12;2.00;;;;;;;19.36;38.40;99673.47;4496076;31;33766;-64
2023/05/10 10:47:29;;;;;;;3.62;1.52;;;;;;;19.42;37.92;99683.66;4499906;31;32146;-65
2023/05/10 10:50:00;;;;;;;2.67;1.80;;;;;;;19.17;38.08;99680.13;4484778;32;33701;-67
2023/05/10 10:52:33;;;;;;;4.65;2.25;;;;;;;19.41;38.31;99667.53;4485955;31;34922;-66
2023/05/10 10:55:03;;;;;;;2.80;1.62;;;;;;;19.85;37.42;99661.66;4487301;31;33560;-65
2023/05/10 10:57:42;;;;;;;3.10;1.65;;;;;;;19.77;37.98;99663.38;4491865;31;33240;-67
2023/05/10 11:00:35;;;;;;;2.00;1.23;;;;;;;19.80;37.73;99653.16;4494055;31;33938;-66
2023/05/10 11:03:08;;;;;;;3.37;2.03;;;;;;;20.30;36.03;99660.06;4494973;31;33702;-68
2023/05/10 11:05:49;;;;;;;3.55;1.70;;;;;;;20.20;36.12;99652.97;4493905;31;32444;-66
2023/05/10 11:08:25;;;;;;;2.65;1.65;;;;;;;20.12;36.61;99655.72;4498141;31;33235;-67
2023/05/10 11:10:59;;;;;;;2.87;1.75;;;;;;;20.60;35.13;99644.72;4491420;31;34394;-66
2023/05/10 11:13:32;;;;;;;2.67;1.15;;;;;;;20.43;35.83;99652.13;4497546;31;34005;-66
2023/05/10 11:16:11;;;;;;;3.80;1.85;;;;;;;20.80;34.99;99640.50;4495037;31;34790;-67
2023/05/10 11:18:39;;;;;;;3.47;1.45;;;;;;;20.60;35.44;99642.84;4493549;31;33527;-66
2023/05/10 11:21:10;;;;;;;3.53;1.87;;;;;;;20.99;34.39;99644.56;4491680;31;33741;-65
2023/05/10 11:23:47;;;;;;;3.97;1.40;;;;;;;20.39;35.29;99639.94;4489191;31;33040;-67
2023/05/10 11:26:15;;;;;;;3.67;1.20;;;;;;;20.14;35.93;99633.81;4492851;31;32363;-69
2023/05/10 11:28:43;;;;;;;2.10;1.33;;;;;;;20.25;36.02;99630.69;4487142;31;34210;-67
2023/05/10 11:31:16;;;;;;;3.37;1.30;;;;;;;20.15;35.86;99630.91;4491536;31;33334;-68
2023/05/10 11:33:52;;;;;;;2.20;1.30;;;;;;;20.50;35.23;99625.91;4492898;31;34972;-68
2023/05/10 11:36:25;;;;;;;3.05;1.62;;;;;;;20.71;35.21;99628.00;4498465;31;34114;-67
2023/05/10 11:38:53;;;;;;;5.57;1.90;;;;;;;20.32;36.05;99623.50;4498243;31;34194;-69
2023/05/10 11:41:22;;;;;;;2.12;1.35;;;;;;;19.84;37.19;99633.66;4495756;31;33833;-67
2023/05/10 11:43:51;;;;;;;4.80;1.73;;;;;;;19.89;36.01;99624.94;4493627;31;33934;-68
2023/05/10 11:46:24;;;;;;;3.15;1.73;;;;;;;20.15;35.85;99620.03;4491089;31;33715;-67